createdAt,value
2023-03-13T17:29:36.369Z,-3.10
2023-03-13T17:32:10.860Z,-3.25
2023-03-13T17:37:24.744Z,-3.18
2023-03-13T17:39:57.685Z,-3.30
2023-03-13T17:42:30.668Z,-3.32
2023-03-13T17:45:06.722Z,-3.35
2023-03-13T17:47:41.373Z,-3.35
2023-03-13T17:50:20.624Z,-3.37
2023-03-13T17:52:54.050Z,-3.39
2023-03-13T17:55:26.981Z,-3.39
2023-03-13T17:58:00.924Z,-3.39
2023-03-13T18:00:35.405Z,-3.41
2023-03-13T18:03:08.526Z,-3.43
2023-03-13T18:05:44.326Z,-3.45
2023-03-13T18:08:17.510Z,-3.46
2023-03-13T18:10:50.508Z,-3.50
2023-03-13T18:13:23.849Z,-3.50
2023-03-13T18:16:00.323Z,-3.49
2023-03-13T18:18:33.292Z,-3.51
2023-03-13T18:21:11.514Z,-3.50
2023-03-13T18:23:44.688Z,-3.54
2023-03-13T18:26:30.792Z,-3.57
2023-03-13T18:29:05.546Z,-3.56
2023-03-13T18:31:40.590Z,-3.59
2023-03-13T18:34:15.383Z,-3.60
2023-03-13T18:36:48.594Z,-3.73
2023-03-13T18:39:21.838Z,-3.63
2023-03-13T18:41:55.185Z,-3.62
2023-03-13T18:44:28.275Z,-3.63
2023-03-13T18:47:01.360Z,-3.66
2023-03-13T18:49:34.373Z,-3.67
2023-03-13T18:52:07.881Z,-3.63
2023-03-13T18:54:40.952Z,-3.66
2023-03-13T18:57:16.525Z,-3.63
2023-03-13T18:59:50.935Z,-3.65
2023-03-13T19:02:23.951Z,-3.64
2023-03-13T19:04:56.902Z,-3.63
2023-03-13T19:07:30.302Z,-3.65
2023-03-13T19:10:04.478Z,-3.67
2023-03-13T19:12:37.512Z,-3.68
2023-03-13T19:18:01.615Z,-3.57
2023-03-13T19:20:34.388Z,-3.71
2023-03-13T19:23:07.379Z,-3.73
2023-03-13T19:25:40.224Z,-3.74
2023-03-13T19:28:13.576Z,-3.75
2023-03-13T19:30:47.825Z,-3.73
2023-03-13T19:33:20.991Z,-3.76
2023-03-13T19:35:54.232Z,-3.79
2023-03-13T19:38:27.556Z,-3.81
2023-03-13T19:41:01.256Z,-3.79
2023-03-13T19:43:35.650Z,-3.77
2023-03-13T19:46:25.655Z,-3.82
2023-03-13T19:49:01.260Z,-3.84
2023-03-13T19:54:16.385Z,-3.78
2023-03-13T19:56:50.627Z,-3.92
2023-03-13T19:59:26.845Z,-3.94
2023-03-13T20:02:01.438Z,-3.95
2023-03-13T20:04:37.108Z,-3.99
2023-03-13T20:07:10.096Z,-3.99
2023-03-13T20:09:43.202Z,-3.99
2023-03-13T20:12:16.304Z,-4.00
2023-03-13T20:14:51.890Z,-4.00
2023-03-13T20:17:24.932Z,-4.02
2023-03-13T20:19:57.901Z,-4.06
2023-03-13T20:22:31.192Z,-4.09
2023-03-13T20:25:04.309Z,-4.11
2023-03-13T20:27:37.450Z,-4.13
2023-03-13T20:30:13.425Z,-4.17
2023-03-13T20:32:58.878Z,-4.20
2023-03-13T20:35:21.257Z,-4.20
2023-03-13T20:37:54.737Z,-4.25
2023-03-13T20:40:27.894Z,-4.25
2023-03-13T20:43:01.641Z,-4.25
2023-03-13T20:45:34.763Z,-4.26
2023-03-13T20:48:08.495Z,-4.27
2023-03-13T20:50:41.379Z,-4.28
2023-03-13T20:53:15.649Z,-4.28
2023-03-13T20:55:49.213Z,-4.28
2023-03-13T20:58:22.278Z,-4.29
2023-03-13T21:00:55.245Z,-4.29
2023-03-13T21:03:28.565Z,-4.29
2023-03-13T21:06:04.027Z,-4.31
2023-03-13T21:08:38.873Z,-4.29
2023-03-13T21:11:16.377Z,-4.26
2023-03-13T21:13:50.425Z,-4.25
2023-03-13T21:16:23.585Z,-4.26
2023-03-13T21:18:56.672Z,-4.22
2023-03-13T21:21:30.183Z,-4.19
2023-03-13T21:24:03.270Z,-4.17
2023-03-13T21:26:36.355Z,-4.13
2023-03-13T21:29:11.023Z,-4.11
2023-03-13T21:31:44.179Z,-4.09
2023-03-13T21:34:17.166Z,-4.04
2023-03-13T21:36:50.150Z,-4.04
2023-03-13T21:39:23.553Z,-4.00
2023-03-13T21:41:57.408Z,-4.00
2023-03-13T21:44:31.774Z,-4.00
2023-03-13T21:47:04.737Z,-3.99
2023-03-13T21:49:40.566Z,-4.00
2023-03-13T21:52:13.904Z,-4.01
2023-03-13T21:54:47.405Z,-4.03
2023-03-13T21:57:20.530Z,-4.02
2023-03-13T21:59:56.131Z,-4.01
2023-03-13T22:02:29.678Z,-4.01
2023-03-13T22:07:55.521Z,-3.84
2023-03-13T22:10:28.629Z,-3.96
2023-03-13T22:13:01.690Z,-3.98
2023-03-13T22:15:35.158Z,-3.97
2023-03-13T22:18:08.455Z,-3.99
2023-03-13T22:20:41.472Z,-3.91
2023-03-13T22:23:14.988Z,-3.86
2023-03-13T22:25:50.676Z,-3.83
2023-03-13T22:28:23.832Z,-3.80
2023-03-13T22:30:56.822Z,-3.78
2023-03-13T22:33:30.126Z,-3.76
2023-03-13T22:36:04.112Z,-3.71
2023-03-13T22:38:39.143Z,-3.65
2023-03-13T22:41:15.099Z,-3.60
2023-03-13T22:43:48.239Z,-3.57
2023-03-13T22:46:21.300Z,-3.55
2023-03-13T22:48:54.443Z,-3.49
2023-03-13T22:51:27.385Z,-3.52
2023-03-13T22:54:00.459Z,-3.52
2023-03-13T22:56:33.365Z,-3.51
2023-03-13T22:59:06.337Z,-3.41
2023-03-13T23:01:39.427Z,-3.38
2023-03-13T23:04:12.382Z,-3.32
2023-03-13T23:06:47.925Z,-3.29
2023-03-13T23:09:20.908Z,-3.25
2023-03-13T23:11:53.883Z,-3.19
2023-03-13T23:14:28.634Z,-3.16
2023-03-13T23:17:01.872Z,-3.12
2023-03-13T23:19:37.697Z,-3.09
2023-03-13T23:22:13.249Z,-3.05
2023-03-13T23:24:46.554Z,-3.02
2023-03-13T23:27:24.036Z,-3.01
2023-03-13T23:29:57.369Z,-3.00
2023-03-13T23:32:30.916Z,-2.99
2023-03-13T23:35:04.660Z,-2.96
2023-03-13T23:37:38.389Z,-2.95
2023-03-13T23:40:13.666Z,-2.96
2023-03-13T23:42:51.650Z,-2.95
2023-03-13T23:45:24.865Z,-2.95
2023-03-13T23:47:58.294Z,-2.97
2023-03-13T23:50:31.883Z,-2.96
2023-03-13T23:53:05.190Z,-2.96
2023-03-13T23:55:38.333Z,-2.96
2023-03-13T23:58:11.444Z,-2.92
